createdAt,value
2023-03-29T00:01:35.999Z,4.95
2023-03-29T00:06:38.886Z,5.37
2023-03-29T00:11:41.644Z,4.80
2023-03-29T00:16:47.074Z,5.23
2023-03-29T00:21:49.831Z,5.53
2023-03-29T00:26:52.299Z,5.22
2023-03-29T00:31:56.218Z,4.90
2023-03-29T00:36:59.772Z,4.78
2023-03-29T00:42:02.850Z,5.20
2023-03-29T00:47:05.370Z,4.72
2023-03-29T00:52:08.376Z,4.65
2023-03-29T00:57:13.972Z,4.90
2023-03-29T01:02:22.367Z,4.97
2023-03-29T01:07:28.670Z,4.53
2023-03-29T01:12:36.281Z,4.95
2023-03-29T01:17:40.792Z,4.78
2023-03-29T01:22:55.885Z,4.40
2023-03-29T01:28:08.056Z,4.60
2023-03-29T01:33:21.572Z,4.30
2023-03-29T01:38:32.528Z,4.60
2023-03-29T01:43:42.543Z,4.72
2023-03-29T01:48:59.419Z,4.80
2023-03-29T01:54:07.964Z,4.18
2023-03-29T01:59:20.967Z,4.27
2023-03-29T02:04:29.375Z,4.68
2023-03-29T02:09:34.363Z,4.30
2023-03-29T02:14:39.940Z,4.33
2023-03-29T02:20:22.640Z,4.32
2023-03-29T02:25:27.176Z,4.37
2023-03-29T02:30:36.933Z,4.50
2023-03-29T02:35:46.624Z,4.35
2023-03-29T02:40:49.197Z,4.27
2023-03-29T02:45:53.491Z,4.50
2023-03-29T02:51:01.457Z,4.43
2023-03-29T02:56:10.477Z,4.35
2023-03-29T03:01:13.800Z,3.60
2023-03-29T03:06:16.653Z,4.33
2023-03-29T03:11:21.802Z,3.92
2023-03-29T03:16:27.443Z,3.90
2023-03-29T03:21:30.372Z,4.13
2023-03-29T03:26:36.154Z,3.40
2023-03-29T03:31:43.401Z,3.07
2023-03-29T03:36:50.882Z,3.10
2023-03-29T03:41:53.432Z,2.80
2023-03-29T03:46:56.514Z,2.53
2023-03-29T03:51:59.315Z,2.80
2023-03-29T03:57:02.483Z,2.80
2023-03-29T04:02:20.533Z,2.97
2023-03-29T04:07:25.639Z,3.47
2023-03-29T04:12:46.999Z,2.42
2023-03-29T04:17:50.799Z,2.63
2023-03-29T04:23:02.205Z,3.00
2023-03-29T04:28:09.239Z,2.70
2023-03-29T04:33:21.659Z,3.13
2023-03-29T04:38:36.304Z,2.67
2023-03-29T04:43:40.209Z,3.10
2023-03-29T04:48:56.885Z,2.77
2023-03-29T04:54:09.079Z,2.80
2023-03-29T04:59:30.435Z,3.10
2023-03-29T05:04:33.363Z,3.13
2023-03-29T05:09:46.426Z,3.25
2023-03-29T05:14:49.100Z,2.73
2023-03-29T05:19:56.424Z,2.55
2023-03-29T05:25:02.741Z,2.80
2023-03-29T05:30:06.438Z,2.83
2023-03-29T05:35:29.375Z,3.20
2023-03-29T05:40:34.405Z,2.93
2023-03-29T05:46:18.017Z,2.70
2023-03-29T05:51:26.533Z,2.92
2023-03-29T05:56:31.371Z,2.77
2023-03-29T06:01:34.818Z,2.60
2023-03-29T06:06:43.571Z,3.25
2023-03-29T06:11:47.824Z,2.53
2023-03-29T06:17:02.002Z,2.30
2023-03-29T06:22:05.058Z,2.33
2023-03-29T06:27:09.697Z,2.87
2023-03-29T06:32:12.945Z,3.28
2023-03-29T06:37:23.576Z,3.20
2023-03-29T06:42:35.974Z,3.37
2023-03-29T06:47:51.090Z,3.10
2023-03-29T06:52:57.074Z,3.20
2023-03-29T06:58:02.451Z,3.43
2023-03-29T07:03:08.411Z,3.10
2023-03-29T07:08:15.620Z,3.10
2023-03-29T07:13:39.234Z,3.20
2023-03-29T07:18:44.508Z,3.83
2023-03-29T07:23:55.185Z,3.33
2023-03-29T07:28:58.128Z,4.03
2023-03-29T07:34:01.208Z,3.20
2023-03-29T07:39:04.431Z,4.20
2023-03-29T07:44:09.848Z,4.22
2023-03-29T07:49:13.974Z,3.87
2023-03-29T07:54:35.607Z,4.13
2023-03-29T08:00:16.849Z,3.80
2023-03-29T08:05:40.899Z,4.07
2023-03-29T08:10:50.816Z,3.47
2023-03-29T08:16:14.006Z,3.95
2023-03-29T08:21:24.405Z,3.60
2023-03-29T08:26:27.124Z,3.90
2023-03-29T08:31:31.701Z,3.67
2023-03-29T08:36:34.417Z,3.75
2023-03-29T08:41:57.999Z,4.13
2023-03-29T08:47:25.522Z,3.90
2023-03-29T08:52:31.566Z,4.07
2023-03-29T08:57:49.670Z,3.30
2023-03-29T09:03:09.371Z,3.97
2023-03-29T09:08:17.943Z,4.40
2023-03-29T09:13:58.850Z,3.90
2023-03-29T09:19:04.658Z,3.43
2023-03-29T09:24:10.965Z,4.43
2023-03-29T09:29:39.402Z,3.55
2023-03-29T09:34:57.426Z,3.40
2023-03-29T09:40:05.087Z,3.80
2023-03-29T09:45:23.310Z,3.33
2023-03-29T09:50:37.098Z,4.07
2023-03-29T09:55:45.072Z,4.17
2023-03-29T10:01:10.609Z,3.30
2023-03-29T10:06:14.867Z,3.72
2023-03-29T10:11:38.754Z,3.40
2023-03-29T10:16:46.584Z,3.03
2023-03-29T10:21:51.876Z,3.50
2023-03-29T10:26:59.236Z,3.47
2023-03-29T10:32:02.472Z,3.83
2023-03-29T10:37:06.505Z,3.42
2023-03-29T10:42:15.116Z,3.50
2023-03-29T10:47:21.864Z,3.60
2023-03-29T10:52:25.369Z,3.38
2023-03-29T10:57:42.188Z,3.50
2023-03-29T11:03:02.652Z,3.57
2023-03-29T11:08:09.765Z,3.50
2023-03-29T11:13:30.881Z,3.60
2023-03-29T11:18:59.907Z,3.70
2023-03-29T11:24:37.783Z,3.38
2023-03-29T11:30:13.717Z,3.45
2023-03-29T11:35:42.960Z,3.07
2023-03-29T11:41:16.130Z,3.57
2023-03-29T11:46:38.067Z,3.45
2023-03-29T11:51:51.142Z,3.25
2023-03-29T11:57:12.517Z,3.50
2023-03-29T12:02:38.343Z,3.63
2023-03-29T12:07:49.000Z,3.90
2023-03-29T12:13:24.893Z,4.50
2023-03-29T12:18:41.722Z,4.03
2023-03-29T12:23:45.025Z,4.65
2023-03-29T12:29:24.735Z,5.03
2023-03-29T12:35:03.464Z,4.70
2023-03-29T12:40:45.745Z,4.38
2023-03-29T12:46:32.877Z,4.13
2023-03-29T12:51:40.825Z,4.37
2023-03-29T12:56:58.957Z,5.07
2023-03-29T13:02:16.206Z,4.22
2023-03-29T13:07:32.035Z,4.30
2023-03-29T13:12:42.552Z,3.40
2023-03-29T13:18:01.030Z,4.40
2023-03-29T13:23:44.669Z,3.90
2023-03-29T13:29:19.413Z,4.07
2023-03-29T13:34:31.871Z,4.18
2023-03-29T13:39:37.532Z,4.68
2023-03-29T13:44:46.743Z,3.87
2023-03-29T13:49:56.944Z,3.78
2023-03-29T13:55:19.889Z,3.50
2023-03-29T14:00:37.456Z,3.90
2023-03-29T14:05:45.245Z,3.70
2023-03-29T14:10:50.413Z,3.63
2023-03-29T14:16:10.866Z,3.83
2023-03-29T14:21:16.259Z,4.27
2023-03-29T14:26:22.680Z,3.70
2023-03-29T14:31:35.405Z,3.42
2023-03-29T14:36:39.290Z,2.87
2023-03-29T14:41:48.579Z,2.67
2023-03-29T14:46:51.575Z,3.63
2023-03-29T14:51:57.626Z,3.33
2023-03-29T14:57:03.816Z,2.90
2023-03-29T15:02:23.581Z,2.45
2023-03-29T15:07:28.613Z,2.00
2023-03-29T15:12:32.676Z,1.80
2023-03-29T15:17:50.112Z,1.88
2023-03-29T15:23:13.582Z,1.65
2023-03-29T15:28:31.708Z,1.60
2023-03-29T15:33:39.796Z,1.55
2023-03-29T15:38:45.431Z,1.42
2023-03-29T15:43:48.297Z,1.63
2023-03-29T15:48:50.952Z,1.60
2023-03-29T15:53:53.553Z,1.70
2023-03-29T15:58:56.260Z,1.70
2023-03-29T16:03:59.999Z,1.77
2023-03-29T16:09:03.234Z,2.15
2023-03-29T16:14:25.517Z,1.55
2023-03-29T16:19:29.850Z,2.10
2023-03-29T16:24:36.089Z,1.42
2023-03-29T16:29:38.785Z,1.42
2023-03-29T16:34:42.463Z,1.60
2023-03-29T16:39:46.756Z,1.27
2023-03-29T16:44:49.387Z,2.08
2023-03-29T16:49:54.959Z,1.63
2023-03-29T16:54:57.686Z,1.47
2023-03-29T17:00:00.584Z,1.40
2023-03-29T17:05:03.663Z,1.10
2023-03-29T17:10:11.121Z,1.00
2023-03-29T17:15:16.180Z,1.00
2023-03-29T17:20:21.979Z,1.52
2023-03-29T17:25:25.297Z,2.03
2023-03-29T17:30:29.181Z,1.48
2023-03-29T17:35:32.348Z,1.63
2023-03-29T17:40:35.050Z,1.10
2023-03-29T17:45:37.981Z,1.60
2023-03-29T17:50:40.681Z,1.00
2023-03-29T17:55:44.385Z,1.90
2023-03-29T18:00:47.438Z,0.90
2023-03-29T18:05:50.279Z,0.83
2023-03-29T18:10:53.062Z,1.00
2023-03-29T18:15:56.897Z,1.30
2023-03-29T18:21:00.168Z,1.30
2023-03-29T18:31:24.116Z,1.10
2023-03-29T18:36:26.856Z,1.00
2023-03-29T18:41:29.421Z,0.90
2023-03-29T18:46:33.443Z,0.93
2023-03-29T18:51:38.553Z,1.00
2023-03-29T18:56:41.176Z,0.87
2023-03-29T19:01:44.242Z,1.10
2023-03-29T19:06:49.630Z,0.87
2023-03-29T19:11:52.212Z,1.03
2023-03-29T19:16:54.766Z,0.90
2023-03-29T19:22:00.507Z,1.40
2023-03-29T19:27:03.984Z,0.90
2023-03-29T19:32:07.161Z,1.20
2023-03-29T19:37:10.009Z,0.93
2023-03-29T19:42:12.774Z,0.93
2023-03-29T19:47:16.103Z,1.40
2023-03-29T19:52:18.917Z,1.60
2023-03-29T19:57:24.104Z,2.20
2023-03-29T20:02:26.707Z,2.58
2023-03-29T20:07:32.275Z,2.87
2023-03-29T20:12:36.358Z,3.17
2023-03-29T20:17:42.254Z,2.38
2023-03-29T20:22:45.712Z,1.97
2023-03-29T20:27:49.677Z,1.40
2023-03-29T20:32:52.260Z,1.20
2023-03-29T20:37:54.789Z,1.80
2023-03-29T20:42:57.329Z,1.80
2023-03-29T20:48:02.510Z,3.08
2023-03-29T20:53:06.637Z,3.20
2023-03-29T20:58:09.481Z,2.53
2023-03-29T21:03:12.599Z,1.90
2023-03-29T21:08:17.815Z,2.23
2023-03-29T21:13:20.694Z,2.97
2023-03-29T21:18:23.740Z,2.80
2023-03-29T21:23:27.286Z,2.57
2023-03-29T21:28:31.228Z,2.30
2023-03-29T21:33:34.972Z,2.30
2023-03-29T21:38:37.492Z,2.10
2023-03-29T21:43:43.360Z,1.80
2023-03-29T21:48:45.994Z,2.00
2023-03-29T21:53:48.544Z,1.73
2023-03-29T21:58:51.299Z,2.05
2023-03-29T22:03:54.095Z,1.75
2023-03-29T22:08:57.036Z,1.53
2023-03-29T22:13:59.567Z,1.95
2023-03-29T22:19:02.142Z,1.53
2023-03-29T22:24:05.301Z,1.20
2023-03-29T22:29:08.129Z,1.30
2023-03-29T22:34:10.808Z,1.60
2023-03-29T22:39:13.762Z,1.50
2023-03-29T22:44:16.518Z,1.33
2023-03-29T22:49:21.797Z,1.60
2023-03-29T22:54:24.321Z,2.00
2023-03-29T22:59:27.548Z,1.73
2023-03-29T23:04:30.150Z,2.03
2023-03-29T23:09:33.211Z,1.80
2023-03-29T23:14:38.039Z,1.80
2023-03-29T23:19:40.659Z,1.98
2023-03-29T23:24:44.302Z,1.90
2023-03-29T23:29:46.721Z,2.00
2023-03-29T23:34:49.275Z,2.10
2023-03-29T23:39:51.780Z,1.93
2023-03-29T23:44:54.400Z,2.47
2023-03-29T23:49:57.032Z,2.20
2023-03-29T23:55:00.978Z,2.10
